sensor_id;sensor_type;location;lat;lon;timestamp;temperature;humidity
1594;DHT22;790;47.000;16.084;2023-05-10T00:01:34;8.90;99.90
1594;DHT22;790;47.000;16.084;2023-05-10T00:04:01;8.80;99.90
1594;DHT22;790;47.000;16.084;2023-05-10T00:06:29;8.80;99.90
1594;DHT22;790;47.000;16.084;2023-05-10T00:08:57;8.80;99.90
1594;DHT22;790;47.000;16.084;2023-05-10T00:11:25;8.80;99.90
1594;DHT22;790;47.000;16.084;2023-05-10T00:13:52;8.70;99.90
1594;DHT22;790;47.000;16.084;2023-05-10T00:16:20;8.60;99.90
1594;DHT22;790;47.000;16.084;2023-05-10T00:18:47;8.60;99.90
1594;DHT22;790;47.000;16.084;2023-05-10T00:21:14;8.60;99.90
1594;DHT22;790;47.000;16.084;2023-05-10T00:23:41;8.50;99.90
1594;DHT22;790;47.000;16.084;2023-05-10T00:26:10;8.50;99.90
1594;DHT22;790;47.000;16.084;2023-05-10T00:28:37;8.50;99.90
1594;DHT22;790;47.000;16.084;2023-05-10T00:31:04;8.40;99.90
1594;DHT22;790;47.000;16.084;2023-05-10T00:33:31;8.40;99.90
1594;DHT22;790;47.000;16.084;2023-05-10T00:35:58;8.40;99.90
1594;DHT22;790;47.000;16.084;2023-05-10T00:38:25;8.40;99.90
1594;DHT22;790;47.000;16.084;2023-05-10T00:40:53;8.50;99.90
1594;DHT22;790;47.000;16.084;2023-05-10T00:43:21;8.50;99.90
1594;DHT22;790;47.000;16.084;2023-05-10T00:45:49;8.40;99.90
1594;DHT22;790;47.000;16.084;2023-05-10T00:48:17;8.40;99.90
1594;DHT22;790;47.000;16.084;2023-05-10T00:50:44;8.40;99.90
1594;DHT22;790;47.000;16.084;2023-05-10T00:53:12;8.40;99.90
1594;DHT22;790;47.000;16.084;2023-05-10T00:55:39;8.20;99.90
1594;DHT22;790;47.000;16.084;2023-05-10T00:58:06;8.20;99.90
1594;DHT22;790;47.000;16.084;2023-05-10T01:00:35;8.20;99.90
1594;DHT22;790;47.000;16.084;2023-05-10T01:03:04;8.10;99.90
1594;DHT22;790;47.000;16.084;2023-05-10T01:05:31;8.10;99.90
1594;DHT22;790;47.000;16.084;2023-05-10T01:07:58;8.10;99.90
1594;DHT22;790;47.000;16.084;2023-05-10T01:10:25;8.10;99.90
1594;DHT22;790;47.000;16.084;2023-05-10T01:12:54;8.10;99.90
1594;DHT22;790;47.000;16.084;2023-05-10T01:15:22;8.00;99.90
1594;DHT22;790;47.000;16.084;2023-05-10T01:17:51;8.00;99.90
1594;DHT22;790;47.000;16.084;2023-05-10T01:20:18;8.00;99.90
1594;DHT22;790;47.000;16.084;2023-05-10T01:23:09;8.00;99.90
1594;DHT22;790;47.000;16.084;2023-05-10T01:25:54;8.00;99.90
1594;DHT22;790;47.000;16.084;2023-05-10T01:34:34;7.90;99.90
1594;DHT22;790;47.000;16.084;2023-05-10T01:37:10;7.90;99.90
1594;DHT22;790;47.000;16.084;2023-05-10T01:39:44;7.80;99.90
1594;DHT22;790;47.000;16.084;2023-05-10T01:42:16;7.80;99.90
1594;DHT22;790;47.000;16.084;2023-05-10T01:44:52;7.80;99.90
1594;DHT22;790;47.000;16.084;2023-05-10T01:47:28;7.80;99.90
1594;DHT22;790;47.000;16.084;2023-05-10T01:50:02;7.80;99.90
1594;DHT22;790;47.000;16.084;2023-05-10T01:52:33;7.80;99.90
1594;DHT22;790;47.000;16.084;2023-05-10T01:55:02;7.80;99.90
1594;DHT22;790;47.000;16.084;2023-05-10T01:57:33;7.80;99.90
1594;DHT22;790;47.000;16.084;2023-05-10T02:00:02;7.70;99.90
1594;DHT22;790;47.000;16.084;2023-05-10T02:02:32;7.70;99.90
1594;DHT22;790;47.000;16.084;2023-05-10T02:05:03;7.70;99.90
1594;DHT22;790;47.000;16.084;2023-05-10T02:07:35;7.70;99.90
1594;DHT22;790;47.000;16.084;2023-05-10T02:10:05;7.70;99.90
1594;DHT22;790;47.000;16.084;2023-05-10T02:12:36;7.70;99.90
1594;DHT22;790;47.000;16.084;2023-05-10T02:15:06;7.60;99.90
1594;DHT22;790;47.000;16.084;2023-05-10T02:17:39;7.60;99.90
1594;DHT22;790;47.000;16.084;2023-05-10T02:20:12;7.50;99.90
1594;DHT22;790;47.000;16.084;2023-05-10T02:22:41;7.50;99.90
1594;DHT22;790;47.000;16.084;2023-05-10T02:25:13;7.40;99.90
1594;DHT22;790;47.000;16.084;2023-05-10T02:27:42;7.40;99.90
1594;DHT22;790;47.000;16.084;2023-05-10T02:30:11;7.50;99.90
1594;DHT22;790;47.000;16.084;2023-05-10T02:32:39;7.50;99.90
1594;DHT22;790;47.000;16.084;2023-05-10T02:35:12;7.50;99.90
1594;DHT22;790;47.000;16.084;2023-05-10T02:37:42;7.40;99.90
1594;DHT22;790;47.000;16.084;2023-05-10T02:40:12;7.40;99.90
1594;DHT22;790;47.000;16.084;2023-05-10T02:42:42;7.40;99.90
1594;DHT22;790;47.000;16.084;2023-05-10T02:45:14;7.40;99.90
1594;DHT22;790;47.000;16.084;2023-05-10T02:47:42;7.40;99.90
1594;DHT22;790;47.000;16.084;2023-05-10T02:50:10;7.40;99.90
1594;DHT22;790;47.000;16.084;2023-05-10T02:52:44;7.40;99.90
1594;DHT22;790;47.000;16.084;2023-05-10T02:55:14;7.40;99.90
1594;DHT22;790;47.000;16.084;2023-05-10T02:57:46;7.40;99.90
1594;DHT22;790;47.000;16.084;2023-05-10T03:00:15;7.30;99.90
1594;DHT22;790;47.000;16.084;2023-05-10T03:02:42;7.30;99.90
1594;DHT22;790;47.000;16.084;2023-05-10T03:05:10;7.30;99.90
1594;DHT22;790;47.000;16.084;2023-05-10T03:07:37;7.20;99.90
1594;DHT22;790;47.000;16.084;2023-05-10T03:10:08;7.20;99.90
1594;DHT22;790;47.000;16.084;2023-05-10T03:12:50;7.20;99.90
1594;DHT22;790;47.000;16.084;2023-05-10T03:15:37;7.20;99.90
1594;DHT22;790;47.000;16.084;2023-05-10T03:18:09;7.20;99.90
1594;DHT22;790;47.000;16.084;2023-05-10T03:20:45;7.10;99.90
1594;DHT22;790;47.000;16.084;2023-05-10T03:23:25;7.00;99.90
1594;DHT22;790;47.000;16.084;2023-05-10T03:25:56;6.90;99.90
1594;DHT22;790;47.000;16.084;2023-05-10T03:28:25;6.90;99.90
1594;DHT22;790;47.000;16.084;2023-05-10T03:30:54;6.90;99.90
1594;DHT22;790;47.000;16.084;2023-05-10T03:33:22;6.90;99.90
1594;DHT22;790;47.000;16.084;2023-05-10T03:35:49;7.00;99.90
1594;DHT22;790;47.000;16.084;2023-05-10T03:38:16;7.00;99.90
1594;DHT22;790;47.000;16.084;2023-05-10T03:40:44;7.00;99.90
1594;DHT22;790;47.000;16.084;2023-05-10T03:43:15;6.90;99.90
1594;DHT22;790;47.000;16.084;2023-05-10T03:45:42;6.80;99.90
1594;DHT22;790;47.000;16.084;2023-05-10T03:48:10;6.80;99.90
1594;DHT22;790;47.000;16.084;2023-05-10T03:50:39;6.80;99.90
1594;DHT22;790;47.000;16.084;2023-05-10T03:53:07;6.90;99.90
1594;DHT22;790;47.000;16.084;2023-05-10T03:55:34;6.90;99.90
1594;DHT22;790;47.000;16.084;2023-05-10T03:58:02;6.90;99.90
1594;DHT22;790;47.000;16.084;2023-05-10T04:00:31;6.90;99.90
1594;DHT22;790;47.000;16.084;2023-05-10T04:02:58;6.90;99.90
1594;DHT22;790;47.000;16.084;2023-05-10T04:05:27;6.80;99.90
1594;DHT22;790;47.000;16.084;2023-05-10T04:07:54;6.90;99.90
1594;DHT22;790;47.000;16.084;2023-05-10T04:10:21;6.90;99.90
1594;DHT22;790;47.000;16.084;2023-05-10T04:12:49;7.00;99.90
1594;DHT22;790;47.000;16.084;2023-05-10T04:15:16;7.00;99.90
1594;DHT22;790;47.000;16.084;2023-05-10T04:17:46;7.00;99.90
1594;DHT22;790;47.000;16.084;2023-05-10T04:20:13;7.00;99.90
1594;DHT22;790;47.000;16.084;2023-05-10T04:22:40;7.10;99.90
1594;DHT22;790;47.000;16.084;2023-05-10T04:25:09;7.10;99.90
1594;DHT22;790;47.000;16.084;2023-05-10T04:27:37;7.10;99.90
1594;DHT22;790;47.000;16.084;2023-05-10T04:30:06;7.10;99.90
1594;DHT22;790;47.000;16.084;2023-05-10T04:32:34;7.10;99.90
1594;DHT22;790;47.000;16.084;2023-05-10T04:35:03;7.10;99.90
1594;DHT22;790;47.000;16.084;2023-05-10T04:37:31;7.10;99.90
1594;DHT22;790;47.000;16.084;2023-05-10T04:39:58;7.10;99.90
1594;DHT22;790;47.000;16.084;2023-05-10T04:42:29;7.20;99.90
1594;DHT22;790;47.000;16.084;2023-05-10T04:44:56;7.20;99.90
1594;DHT22;790;47.000;16.084;2023-05-10T04:47:23;7.30;99.90
1594;DHT22;790;47.000;16.084;2023-05-10T04:49:50;7.40;99.90
1594;DHT22;790;47.000;16.084;2023-05-10T04:52:19;7.40;99.90
1594;DHT22;790;47.000;16.084;2023-05-10T04:54:46;7.50;99.90
1594;DHT22;790;47.000;16.084;2023-05-10T04:57:13;7.50;99.90
1594;DHT22;790;47.000;16.084;2023-05-10T04:59:41;7.50;99.90
1594;DHT22;790;47.000;16.084;2023-05-10T05:02:08;7.60;99.90
1594;DHT22;790;47.000;16.084;2023-05-10T05:04:35;7.70;99.90
1594;DHT22;790;47.000;16.084;2023-05-10T05:07:03;7.80;99.90
1594;DHT22;790;47.000;16.084;2023-05-10T05:09:32;7.80;99.90
1594;DHT22;790;47.000;16.084;2023-05-10T05:11:59;7.90;99.90
1594;DHT22;790;47.000;16.084;2023-05-10T05:14:26;7.90;99.90
1594;DHT22;790;47.000;16.084;2023-05-10T05:16:53;8.00;99.90
1594;DHT22;790;47.000;16.084;2023-05-10T05:19:21;8.00;99.90
1594;DHT22;790;47.000;16.084;2023-05-10T05:21:49;8.00;99.90
1594;DHT22;790;47.000;16.084;2023-05-10T05:24:16;8.10;99.90
1594;DHT22;790;47.000;16.084;2023-05-10T05:26:45;8.10;99.90
1594;DHT22;790;47.000;16.084;2023-05-10T05:29:12;8.20;99.90
1594;DHT22;790;47.000;16.084;2023-05-10T05:31:44;8.30;99.90
1594;DHT22;790;47.000;16.084;2023-05-10T05:34:12;8.40;99.90
1594;DHT22;790;47.000;16.084;2023-05-10T05:36:40;8.60;99.90
1594;DHT22;790;47.000;16.084;2023-05-10T05:39:07;8.60;99.90
1594;DHT22;790;47.000;16.084;2023-05-10T05:41:35;8.60;99.90
1594;DHT22;790;47.000;16.084;2023-05-10T05:44:05;8.70;99.90
1594;DHT22;790;47.000;16.084;2023-05-10T05:46:35;8.90;99.90
1594;DHT22;790;47.000;16.084;2023-05-10T05:49:02;8.90;99.90
1594;DHT22;790;47.000;16.084;2023-05-10T05:51:32;9.00;99.90
1594;DHT22;790;47.000;16.084;2023-05-10T05:54:01;9.10;99.90
1594;DHT22;790;47.000;16.084;2023-05-10T05:56:31;9.20;99.90
1594;DHT22;790;47.000;16.084;2023-05-10T05:59:04;9.40;99.90
1594;DHT22;790;47.000;16.084;2023-05-10T06:01:34;9.50;99.90
1594;DHT22;790;47.000;16.084;2023-05-10T06:04:02;9.60;99.90
1594;DHT22;790;47.000;16.084;2023-05-10T06:06:32;9.60;99.90
1594;DHT22;790;47.000;16.084;2023-05-10T06:09:01;9.70;99.90
1594;DHT22;790;47.000;16.084;2023-05-10T06:11:32;9.80;99.90
1594;DHT22;790;47.000;16.084;2023-05-10T06:14:01;10.00;99.90
1594;DHT22;790;47.000;16.084;2023-05-10T06:16:34;10.10;99.90
1594;DHT22;790;47.000;16.084;2023-05-10T06:19:02;10.10;99.90
1594;DHT22;790;47.000;16.084;2023-05-10T06:21:31;10.20;99.90
1594;DHT22;790;47.000;16.084;2023-05-10T06:24:05;10.30;99.90
1594;DHT22;790;47.000;16.084;2023-05-10T06:26:33;10.50;99.90
1594;DHT22;790;47.000;16.084;2023-05-10T06:29:00;10.50;99.90
1594;DHT22;790;47.000;16.084;2023-05-10T06:31:31;10.70;99.90
1594;DHT22;790;47.000;16.084;2023-05-10T06:33:58;10.80;99.90
1594;DHT22;790;47.000;16.084;2023-05-10T06:36:26;10.90;99.90
1594;DHT22;790;47.000;16.084;2023-05-10T06:38:54;11.00;99.90
1594;DHT22;790;47.000;16.084;2023-05-10T06:41:22;11.10;99.90
1594;DHT22;790;47.000;16.084;2023-05-10T06:43:50;11.20;99.90
1594;DHT22;790;47.000;16.084;2023-05-10T06:46:18;11.30;99.90
1594;DHT22;790;47.000;16.084;2023-05-10T06:48:47;11.50;99.90
1594;DHT22;790;47.000;16.084;2023-05-10T06:51:15;11.60;99.90
1594;DHT22;790;47.000;16.084;2023-05-10T06:53:46;11.60;99.90
1594;DHT22;790;47.000;16.084;2023-05-10T06:56:15;11.70;99.90
1594;DHT22;790;47.000;16.084;2023-05-10T06:58:43;11.80;99.90
1594;DHT22;790;47.000;16.084;2023-05-10T07:01:12;12.00;99.90
1594;DHT22;790;47.000;16.084;2023-05-10T07:03:39;12.10;99.90
1594;DHT22;790;47.000;16.084;2023-05-10T07:06:18;12.20;99.90
1594;DHT22;790;47.000;16.084;2023-05-10T07:08:49;12.30;99.90
1594;DHT22;790;47.000;16.084;2023-05-10T07:11:20;12.40;99.90
1594;DHT22;790;47.000;16.084;2023-05-10T07:13:50;12.60;99.90
1594;DHT22;790;47.000;16.084;2023-05-10T07:16:19;12.70;99.90
1594;DHT22;790;47.000;16.084;2023-05-10T07:18:48;12.90;99.90
1594;DHT22;790;47.000;16.084;2023-05-10T07:21:21;13.10;99.90
1594;DHT22;790;47.000;16.084;2023-05-10T07:23:54;13.20;99.90
1594;DHT22;790;47.000;16.084;2023-05-10T07:26:21;13.30;99.90
1594;DHT22;790;47.000;16.084;2023-05-10T07:28:48;13.50;99.90
1594;DHT22;790;47.000;16.084;2023-05-10T07:31:15;13.60;99.90
1594;DHT22;790;47.000;16.084;2023-05-10T07:33:43;13.70;99.90
1594;DHT22;790;47.000;16.084;2023-05-10T07:36:10;13.90;99.90
1594;DHT22;790;47.000;16.084;2023-05-10T07:38:38;14.00;99.90
1594;DHT22;790;47.000;16.084;2023-05-10T07:41:06;14.20;99.90
1594;DHT22;790;47.000;16.084;2023-05-10T07:43:33;14.30;99.90
1594;DHT22;790;47.000;16.084;2023-05-10T07:46:01;14.40;99.90
1594;DHT22;790;47.000;16.084;2023-05-10T07:48:28;14.50;99.90
1594;DHT22;790;47.000;16.084;2023-05-10T07:50:55;14.60;99.90
1594;DHT22;790;47.000;16.084;2023-05-10T07:53:22;14.70;99.90
1594;DHT22;790;47.000;16.084;2023-05-10T07:55:54;14.80;99.90
1594;DHT22;790;47.000;16.084;2023-05-10T07:58:24;14.90;99.90
1594;DHT22;790;47.000;16.084;2023-05-10T08:00:51;14.90;99.90
1594;DHT22;790;47.000;16.084;2023-05-10T08:03:18;15.00;99.90
1594;DHT22;790;47.000;16.084;2023-05-10T08:05:46;15.10;99.90
1594;DHT22;790;47.000;16.084;2023-05-10T08:08:13;15.20;99.90
1594;DHT22;790;47.000;16.084;2023-05-10T08:10:40;15.30;99.90
1594;DHT22;790;47.000;16.084;2023-05-10T08:13:09;15.30;99.90
1594;DHT22;790;47.000;16.084;2023-05-10T08:15:36;15.50;99.90
1594;DHT22;790;47.000;16.084;2023-05-10T08:18:03;15.70;99.90
1594;DHT22;790;47.000;16.084;2023-05-10T08:20:30;15.80;99.90
1594;DHT22;790;47.000;16.084;2023-05-10T08:22:58;16.00;99.90
1594;DHT22;790;47.000;16.084;2023-05-10T08:25:25;16.20;99.90
1594;DHT22;790;47.000;16.084;2023-05-10T08:27:52;16.30;99.90
1594;DHT22;790;47.000;16.084;2023-05-10T08:30:21;16.30;99.90
1594;DHT22;790;47.000;16.084;2023-05-10T08:32:48;16.50;99.90
1594;DHT22;790;47.000;16.084;2023-05-10T08:35:15;16.60;99.90
1594;DHT22;790;47.000;16.084;2023-05-10T08:37:42;16.80;99.90
1594;DHT22;790;47.000;16.084;2023-05-10T08:40:11;16.90;99.90
1594;DHT22;790;47.000;16.084;2023-05-10T08:42:40;17.10;99.90
1594;DHT22;790;47.000;16.084;2023-05-10T08:45:10;17.20;99.90
1594;DHT22;790;47.000;16.084;2023-05-10T08:47:39;17.30;99.90
1594;DHT22;790;47.000;16.084;2023-05-10T08:50:08;17.30;99.90
1594;DHT22;790;47.000;16.084;2023-05-10T08:52:38;17.40;99.90
1594;DHT22;790;47.000;16.084;2023-05-10T08:55:07;17.50;99.90
1594;DHT22;790;47.000;16.084;2023-05-10T08:57:35;17.50;99.90
1594;DHT22;790;47.000;16.084;2023-05-10T09:00:04;17.70;99.90
1594;DHT22;790;47.000;16.084;2023-05-10T09:02:31;17.70;99.90
1594;DHT22;790;47.000;16.084;2023-05-10T09:04:59;17.80;99.90
1594;DHT22;790;47.000;16.084;2023-05-10T09:07:27;17.90;99.90
1594;DHT22;790;47.000;16.084;2023-05-10T09:09:54;18.00;99.90
1594;DHT22;790;47.000;16.084;2023-05-10T09:12:22;18.00;99.90
1594;DHT22;790;47.000;16.084;2023-05-10T09:14:50;18.10;99.90
1594;DHT22;790;47.000;16.084;2023-05-10T09:17:19;18.20;99.90
1594;DHT22;790;47.000;16.084;2023-05-10T09:19:47;18.40;99.90
1594;DHT22;790;47.000;16.084;2023-05-10T09:22:16;18.40;99.90
1594;DHT22;790;47.000;16.084;2023-05-10T09:24:44;18.50;99.90
1594;DHT22;790;47.000;16.084;2023-05-10T09:27:11;18.50;99.90
1594;DHT22;790;47.000;16.084;2023-05-10T09:29:42;18.30;99.90
1594;DHT22;790;47.000;16.084;2023-05-10T09:32:10;18.30;99.90
1594;DHT22;790;47.000;16.084;2023-05-10T09:34:38;18.40;99.90
1594;DHT22;790;47.000;16.084;2023-05-10T09:37:06;18.50;99.90
1594;DHT22;790;47.000;16.084;2023-05-10T09:39:36;18.60;99.90
1594;DHT22;790;47.000;16.084;2023-05-10T09:42:05;18.50;99.90
1594;DHT22;790;47.000;16.084;2023-05-10T09:44:34;18.40;99.90
1594;DHT22;790;47.000;16.084;2023-05-10T09:47:02;18.50;99.90
1594;DHT22;790;47.000;16.084;2023-05-10T09:49:29;18.60;99.90
1594;DHT22;790;47.000;16.084;2023-05-10T09:52:01;18.60;99.90
1594;DHT22;790;47.000;16.084;2023-05-10T09:54:29;18.30;99.90
1594;DHT22;790;47.000;16.084;2023-05-10T09:56:58;18.20;99.90
1594;DHT22;790;47.000;16.084;2023-05-10T09:59:26;18.10;99.90
1594;DHT22;790;47.000;16.084;2023-05-10T10:01:56;18.30;99.90
1594;DHT22;790;47.000;16.084;2023-05-10T10:04:24;18.50;99.90
1594;DHT22;790;47.000;16.084;2023-05-10T10:07:04;18.60;99.90
1594;DHT22;790;47.000;16.084;2023-05-10T10:09:32;18.90;99.90
1594;DHT22;790;47.000;16.084;2023-05-10T10:12:02;19.10;99.90
1594;DHT22;790;47.000;16.084;2023-05-10T10:14:29;19.30;99.90
1594;DHT22;790;47.000;16.084;2023-05-10T10:16:56;19.30;99.90
1594;DHT22;790;47.000;16.084;2023-05-10T10:19:23;19.30;99.90
1594;DHT22;790;47.000;16.084;2023-05-10T10:21:51;19.30;99.90
1594;DHT22;790;47.000;16.084;2023-05-10T10:24:18;19.30;99.90
1594;DHT22;790;47.000;16.084;2023-05-10T10:26:45;19.20;99.90
1594;DHT22;790;47.000;16.084;2023-05-10T10:29:33;19.00;99.90
1594;DHT22;790;47.000;16.084;2023-05-10T10:32:09;18.80;99.90
1594;DHT22;790;47.000;16.084;2023-05-10T10:34:39;18.70;99.90
1594;DHT22;790;47.000;16.084;2023-05-10T10:37:06;18.70;99.90
1594;DHT22;790;47.000;16.084;2023-05-10T10:39:33;18.70;99.90
1594;DHT22;790;47.000;16.084;2023-05-10T10:42:03;18.70;99.90
1594;DHT22;790;47.000;16.084;2023-05-10T10:44:37;18.80;99.90
1594;DHT22;790;47.000;16.084;2023-05-10T10:49:51;19.00;99.90
1594;DHT22;790;47.000;16.084;2023-05-10T10:52:24;19.20;99.90
1594;DHT22;790;47.000;16.084;2023-05-10T10:54:59;19.10;99.90
1594;DHT22;790;47.000;16.084;2023-05-10T10:57:30;19.20;99.90
1594;DHT22;790;47.000;16.084;2023-05-10T11:00:23;19.20;99.90
1594;DHT22;790;47.000;16.084;2023-05-10T11:02:51;19.20;99.90
1594;DHT22;790;47.000;16.084;2023-05-10T11:05:37;19.50;99.90
1594;DHT22;790;47.000;16.084;2023-05-10T11:08:11;19.80;99.90
1594;DHT22;790;47.000;16.084;2023-05-10T11:10:39;19.90;99.90
1594;DHT22;790;47.000;16.084;2023-05-10T11:13:07;19.90;99.90
1594;DHT22;790;47.000;16.084;2023-05-10T11:15:38;20.00;99.90
1594;DHT22;790;47.000;16.084;2023-05-10T11:18:18;20.10;99.90
1594;DHT22;790;47.000;16.084;2023-05-10T11:20:50;20.20;99.90
1594;DHT22;790;47.000;16.084;2023-05-10T11:23:17;19.90;99.90
1594;DHT22;790;47.000;16.084;2023-05-10T11:25:48;19.90;99.90
1594;DHT22;790;47.000;16.084;2023-05-10T11:28:18;20.00;99.90
1594;DHT22;790;47.000;16.084;2023-05-10T11:30:47;20.10;99.90
1594;DHT22;790;47.000;16.084;2023-05-10T11:33:18;20.10;99.90
1594;DHT22;790;47.000;16.084;2023-05-10T11:35:46;20.30;99.90
1594;DHT22;790;47.000;16.084;2023-05-10T11:38:13;20.40;99.90
1594;DHT22;790;47.000;16.084;2023-05-10T11:40:41;20.40;99.90
1594;DHT22;790;47.000;16.084;2023-05-10T11:43:09;20.40;99.90
1594;DHT22;790;47.000;16.084;2023-05-10T11:45:38;20.50;99.90
1594;DHT22;790;47.000;16.084;2023-05-10T11:48:08;20.50;99.90
1594;DHT22;790;47.000;16.084;2023-05-10T11:50:35;20.50;99.90
1594;DHT22;790;47.000;16.084;2023-05-10T11:53:02;20.40;99.90
1594;DHT22;790;47.000;16.084;2023-05-10T11:55:29;20.40;99.90
1594;DHT22;790;47.000;16.084;2023-05-10T11:58:00;20.40;99.90
1594;DHT22;790;47.000;16.084;2023-05-10T12:00:28;20.50;99.90
1594;DHT22;790;47.000;16.084;2023-05-10T12:02:56;20.50;99.90
1594;DHT22;790;47.000;16.084;2023-05-10T12:05:25;20.60;99.90
1594;DHT22;790;47.000;16.084;2023-05-10T12:07:53;20.70;99.90
1594;DHT22;790;47.000;16.084;2023-05-10T12:10:26;20.80;99.90
1594;DHT22;790;47.000;16.084;2023-05-10T12:12:53;20.90;99.90
1594;DHT22;790;47.000;16.084;2023-05-10T12:15:22;20.90;99.90
1594;DHT22;790;47.000;16.084;2023-05-10T12:17:49;20.80;99.90
1594;DHT22;790;47.000;16.084;2023-05-10T12:20:18;20.80;99.90
1594;DHT22;790;47.000;16.084;2023-05-10T12:22:50;20.90;99.90
1594;DHT22;790;47.000;16.084;2023-05-10T12:25:17;20.90;99.90
1594;DHT22;790;47.000;16.084;2023-05-10T12:27:49;20.90;99.90
1594;DHT22;790;47.000;16.084;2023-05-10T12:30:21;20.80;99.90
1594;DHT22;790;47.000;16.084;2023-05-10T12:32:49;20.90;99.90
1594;DHT22;790;47.000;16.084;2023-05-10T12:35:16;20.80;99.90
1594;DHT22;790;47.000;16.084;2023-05-10T12:37:46;20.80;98.50
1594;DHT22;790;47.000;16.084;2023-05-10T12:40:15;20.80;99.90
1594;DHT22;790;47.000;16.084;2023-05-10T12:42:42;21.00;99.90
1594;DHT22;790;47.000;16.084;2023-05-10T12:45:11;21.10;99.50
1594;DHT22;790;47.000;16.084;2023-05-10T12:47:38;21.20;99.90
1594;DHT22;790;47.000;16.084;2023-05-10T12:50:06;21.10;99.70
1594;DHT22;790;47.000;16.084;2023-05-10T12:52:33;21.10;99.90
1594;DHT22;790;47.000;16.084;2023-05-10T12:55:01;21.20;99.80
1594;DHT22;790;47.000;16.084;2023-05-10T12:57:32;21.10;99.80
1594;DHT22;790;47.000;16.084;2023-05-10T12:59:59;21.00;99.90
1594;DHT22;790;47.000;16.084;2023-05-10T13:02:26;21.10;99.90
1594;DHT22;790;47.000;16.084;2023-05-10T13:04:53;21.10;99.70
1594;DHT22;790;47.000;16.084;2023-05-10T13:07:20;21.00;99.90
1594;DHT22;790;47.000;16.084;2023-05-10T13:09:47;21.00;99.90
1594;DHT22;790;47.000;16.084;2023-05-10T13:12:14;21.10;99.90
1594;DHT22;790;47.000;16.084;2023-05-10T13:14:43;21.00;99.20
1594;DHT22;790;47.000;16.084;2023-05-10T13:17:10;20.90;99.30
1594;DHT22;790;47.000;16.084;2023-05-10T13:19:37;20.80;98.60
1594;DHT22;790;47.000;16.084;2023-05-10T13:22:04;20.70;99.60
1594;DHT22;790;47.000;16.084;2023-05-10T13:24:32;20.60;99.90
1594;DHT22;790;47.000;16.084;2023-05-10T13:26:59;20.70;99.90
1594;DHT22;790;47.000;16.084;2023-05-10T13:29:26;20.70;99.90
1594;DHT22;790;47.000;16.084;2023-05-10T13:31:54;20.80;99.90
1594;DHT22;790;47.000;16.084;2023-05-10T13:34:21;21.00;99.90
1594;DHT22;790;47.000;16.084;2023-05-10T13:36:50;21.00;99.90
1594;DHT22;790;47.000;16.084;2023-05-10T13:39:18;21.10;99.90
1594;DHT22;790;47.000;16.084;2023-05-10T13:41:45;21.00;99.90
1594;DHT22;790;47.000;16.084;2023-05-10T13:44:13;20.90;99.90
1594;DHT22;790;47.000;16.084;2023-05-10T13:46:41;20.70;99.90
1594;DHT22;790;47.000;16.084;2023-05-10T13:49:10;20.50;99.90
1594;DHT22;790;47.000;16.084;2023-05-10T13:51:37;20.30;99.90
1594;DHT22;790;47.000;16.084;2023-05-10T13:54:04;20.20;99.90
1594;DHT22;790;47.000;16.084;2023-05-10T13:56:32;20.00;99.90
1594;DHT22;790;47.000;16.084;2023-05-10T13:58:59;19.90;99.90
1594;DHT22;790;47.000;16.084;2023-05-10T14:01:26;19.70;99.90
1594;DHT22;790;47.000;16.084;2023-05-10T14:03:53;19.70;99.90
1594;DHT22;790;47.000;16.084;2023-05-10T14:06:22;19.70;99.90
1594;DHT22;790;47.000;16.084;2023-05-10T14:08:49;19.60;99.90
1594;DHT22;790;47.000;16.084;2023-05-10T14:11:16;19.60;99.90
1594;DHT22;790;47.000;16.084;2023-05-10T14:13:43;19.50;99.90
1594;DHT22;790;47.000;16.084;2023-05-10T14:16:10;19.40;99.90
1594;DHT22;790;47.000;16.084;2023-05-10T14:18:37;19.40;99.90
1594;DHT22;790;47.000;16.084;2023-05-10T14:21:04;19.40;99.90
1594;DHT22;790;47.000;16.084;2023-05-10T14:23:33;19.30;99.90
1594;DHT22;790;47.000;16.084;2023-05-10T14:26:00;19.30;99.90
1594;DHT22;790;47.000;16.084;2023-05-10T14:28:27;19.30;99.90
1594;DHT22;790;47.000;16.084;2023-05-10T14:30:55;19.30;99.90
1594;DHT22;790;47.000;16.084;2023-05-10T14:33:23;19.40;99.90
1594;DHT22;790;47.000;16.084;2023-05-10T14:35:50;19.50;99.90
1594;DHT22;790;47.000;16.084;2023-05-10T14:38:17;19.50;99.90
1594;DHT22;790;47.000;16.084;2023-05-10T14:40:46;19.60;99.90
1594;DHT22;790;47.000;16.084;2023-05-10T14:43:13;19.60;99.90
1594;DHT22;790;47.000;16.084;2023-05-10T14:45:41;19.50;99.90
1594;DHT22;790;47.000;16.084;2023-05-10T14:48:08;19.60;99.90
1594;DHT22;790;47.000;16.084;2023-05-10T14:50:40;19.50;99.90
1594;DHT22;790;47.000;16.084;2023-05-10T14:53:08;19.50;99.90
1594;DHT22;790;47.000;16.084;2023-05-10T14:55:36;19.50;99.90
1594;DHT22;790;47.000;16.084;2023-05-10T14:58:05;19.60;99.90
1594;DHT22;790;47.000;16.084;2023-05-10T15:00:32;19.60;99.90
1594;DHT22;790;47.000;16.084;2023-05-10T15:02:59;19.60;99.90
1594;DHT22;790;47.000;16.084;2023-05-10T15:05:26;19.70;99.90
1594;DHT22;790;47.000;16.084;2023-05-10T15:07:53;19.70;99.90
1594;DHT22;790;47.000;16.084;2023-05-10T15:10:20;19.70;99.90
1594;DHT22;790;47.000;16.084;2023-05-10T15:12:47;19.60;99.90
1594;DHT22;790;47.000;16.084;2023-05-10T15:15:16;19.60;99.90
1594;DHT22;790;47.000;16.084;2023-05-10T15:17:43;19.60;99.90
1594;DHT22;790;47.000;16.084;2023-05-10T15:20:11;19.70;99.90
1594;DHT22;790;47.000;16.084;2023-05-10T15:22:38;19.80;99.90
1594;DHT22;790;47.000;16.084;2023-05-10T15:25:06;19.90;99.90
1594;DHT22;790;47.000;16.084;2023-05-10T15:27:33;20.00;99.90
1594;DHT22;790;47.000;16.084;2023-05-10T15:30:00;20.10;99.90
1594;DHT22;790;47.000;16.084;2023-05-10T15:32:29;20.10;99.90
1594;DHT22;790;47.000;16.084;2023-05-10T15:34:56;20.00;99.90
1594;DHT22;790;47.000;16.084;2023-05-10T15:37:23;20.00;99.90
1594;DHT22;790;47.000;16.084;2023-05-10T15:39:50;20.00;99.90
1594;DHT22;790;47.000;16.084;2023-05-10T15:42:17;19.90;99.90
1594;DHT22;790;47.000;16.084;2023-05-10T15:44:44;20.00;99.90
1594;DHT22;790;47.000;16.084;2023-05-10T15:47:15;19.90;99.90
1594;DHT22;790;47.000;16.084;2023-05-10T15:49:44;19.80;99.90
1594;DHT22;790;47.000;16.084;2023-05-10T15:52:11;19.80;99.90
1594;DHT22;790;47.000;16.084;2023-05-10T15:54:38;19.70;99.90
1594;DHT22;790;47.000;16.084;2023-05-10T15:57:05;19.60;99.90
1594;DHT22;790;47.000;16.084;2023-05-10T15:59:34;19.70;99.90
1594;DHT22;790;47.000;16.084;2023-05-10T16:02:02;19.60;99.90
1594;DHT22;790;47.000;16.084;2023-05-10T16:04:30;19.40;99.90
1594;DHT22;790;47.000;16.084;2023-05-10T16:07:00;19.40;99.90
1594;DHT22;790;47.000;16.084;2023-05-10T16:09:27;19.40;99.90
1594;DHT22;790;47.000;16.084;2023-05-10T16:11:59;19.40;99.90
1594;DHT22;790;47.000;16.084;2023-05-10T16:14:27;19.40;99.90
1594;DHT22;790;47.000;16.084;2023-05-10T16:16:55;19.40;99.90
1594;DHT22;790;47.000;16.084;2023-05-10T16:19:23;19.40;99.90
1594;DHT22;790;47.000;16.084;2023-05-10T16:21:50;19.30;99.90
1594;DHT22;790;47.000;16.084;2023-05-10T16:24:22;19.30;99.90
1594;DHT22;790;47.000;16.084;2023-05-10T16:26:50;19.30;99.90